Time;durP1;ratioP1;P1;durP2;ratioP2;P2;SDS_P1;SDS_P2;PMS_P1;PMS_P2;Temp;Humidity;BMP_temperature;BMP_pressure;BME280_temperature;BME280_humidity;BME280_pressure;Samples;Min_cycle;Max_cycle;Signal;HPM_P1;HPM_P2
2023/08/04 00:00:16;;;;;;;4.18;1.60;;;;;;;17.09;72.52;97536.78;5027215;28;20399;-79
2023/08/04 00:03:03;;;;;;;4.07;1.70;;;;;;;17.35;72.92;97594.22;5029627;28;20033;-79
2023/08/04 00:05:37;;;;;;;3.42;1.48;;;;;;;16.99;73.23;97552.50;5018714;28;20030;-79
2023/08/04 00:11:48;;;;;;;3.65;1.63;;;;;;;16.54;74.08;97541.34;4975300;28;20046;-81
2023/08/04 00:14:13;;;;;;;5.78;1.60;;;;;;;16.20;73.73;97501.94;5013712;28;20042;-79
2023/08/04 00:16:39;;;;;;;5.90;1.90;;;;;;;16.63;75.14;97619.50;5029257;28;20060;-79
2023/08/04 00:19:04;;;;;;;3.38;1.60;;;;;;;16.39;74.74;97571.47;5030353;28;20029;-79
2023/08/04 00:21:35;;;;;;;5.20;1.60;;;;;;;16.18;74.21;97553.88;5027414;28;20113;-81
2023/08/04 00:24:02;;;;;;;3.67;1.70;;;;;;;16.69;74.76;97634.59;4992701;28;20029;-79
2023/08/04 00:26:27;;;;;;;4.13;2.00;;;;;;;16.55;75.22;97635.38;4987779;28;20026;-80
2023/08/04 00:28:53;;;;;;;5.85;1.63;;;;;;;16.37;75.43;97603.56;5000031;28;20076;-79
2023/08/04 00:31:18;;;;;;;6.47;1.70;;;;;;;16.48;75.93;97637.63;5012836;28;20029;-80
2023/08/04 00:33:44;;;;;;;3.35;1.67;;;;;;;16.42;75.65;97630.69;5001974;28;20090;-80
2023/08/04 00:36:09;;;;;;;2.70;1.70;;;;;;;16.42;76.60;97624.44;4984932;28;20021;-78
2023/08/04 00:38:38;;;;;;;3.65;1.70;;;;;;;16.63;76.61;97641.25;5002548;28;20037;-79
2023/08/04 00:41:03;;;;;;;4.40;1.67;;;;;;;16.62;76.31;97628.78;4988536;28;20082;-79
2023/08/04 00:43:29;;;;;;;3.65;1.70;;;;;;;16.34;76.86;97597.91;5021847;28;20129;-79
2023/08/04 00:45:54;;;;;;;1.58;1.30;;;;;;;16.65;76.86;97623.53;4983558;28;20025;-79
2023/08/04 00:48:20;;;;;;;3.15;1.75;;;;;;;16.88;76.68;97651.69;4998843;28;20029;-78
2023/08/04 00:50:46;;;;;;;4.18;1.98;;;;;;;16.85;76.58;97644.16;4989106;28;20033;-78
2023/08/04 00:53:12;;;;;;;4.13;1.58;;;;;;;16.98;76.36;97659.69;5023438;28;20029;-79
2023/08/04 00:55:39;;;;;;;4.45;1.92;;;;;;;16.96;76.58;97667.34;5029295;28;20037;-78
2023/08/04 00:58:04;;;;;;;3.72;1.70;;;;;;;16.81;76.29;97637.69;5018431;28;20049;-78
2023/08/04 01:00:30;;;;;;;3.20;1.73;;;;;;;16.88;76.75;97660.66;4997455;28;20021;-79
2023/08/04 01:02:55;;;;;;;2.95;1.75;;;;;;;16.81;76.67;97656.72;5043282;28;20064;-80
2023/08/04 01:05:26;;;;;;;2.85;1.73;;;;;;;16.91;76.28;97662.81;5007602;28;20025;-79
2023/08/04 01:08:19;;;;;;;4.50;1.67;;;;;;;16.92;76.39;97663.63;4992536;28;20025;-77
2023/08/04 01:10:51;;;;;;;4.15;1.50;;;;;;;16.77;76.50;97633.94;5033707;28;20423;-79
2023/08/04 01:13:21;;;;;;;3.72;1.80;;;;;;;16.99;76.62;97666.75;5017931;28;20485;-80
2023/08/04 01:15:48;;;;;;;3.03;1.80;;;;;;;16.85;76.43;97652.31;5013491;28;20043;-77
2023/08/04 01:18:18;;;;;;;2.60;1.90;;;;;;;16.91;76.28;97648.41;5016952;28;20109;-79
2023/08/04 01:20:44;;;;;;;4.03;1.95;;;;;;;16.93;76.25;97651.63;5000577;28;20048;-79
2023/08/04 01:23:09;;;;;;;2.35;1.67;;;;;;;16.90;76.57;97638.59;5033497;28;20472;-78
2023/08/04 01:25:35;;;;;;;5.00;2.00;;;;;;;16.44;76.48;97563.22;4987117;28;20051;-77
2023/08/04 01:28:04;;;;;;;3.90;2.20;;;;;;;16.99;76.43;97642.28;4991633;28;20021;-79
2023/08/04 01:30:31;;;;;;;6.50;1.88;;;;;;;16.91;76.55;97626.63;5037879;28;20033;-79
2023/08/04 01:32:56;;;;;;;2.72;1.80;;;;;;;16.89;76.54;97617.97;5004745;28;20473;-78
2023/08/04 01:35:22;;;;;;;4.72;1.90;;;;;;;17.02;76.64;97638.94;5030502;28;20705;-79
2023/08/04 01:37:48;;;;;;;3.17;1.80;;;;;;;16.99;75.97;97624.03;5000602;28;20037;-80
2023/08/04 01:40:13;;;;;;;4.10;1.63;;;;;;;16.99;76.43;97618.56;5027511;28;20148;-79
2023/08/04 01:42:39;;;;;;;2.80;1.88;;;;;;;16.81;76.39;97602.31;5052615;28;20048;-79
2023/08/04 01:45:05;;;;;;;2.88;1.90;;;;;;;16.87;76.69;97617.47;5013100;28;20034;-80
2023/08/04 01:47:31;;;;;;;2.55;1.90;;;;;;;16.67;76.55;97577.00;5012952;28;20017;-80
2023/08/04 01:49:56;;;;;;;2.88;1.95;;;;;;;16.57;76.93;97589.66;5028181;28;20683;-82
2023/08/04 01:52:22;;;;;;;5.07;2.22;;;;;;;16.59;77.42;97625.53;5017496;28;20459;-82
2023/08/04 01:54:47;;;;;;;3.35;1.98;;;;;;;16.58;76.91;97629.34;4997618;28;20089;-80
2023/08/04 01:57:12;;;;;;;5.18;1.98;;;;;;;16.61;77.13;97641.56;4999896;28;20077;-81
2023/08/04 01:59:39;;;;;;;2.67;2.00;;;;;;;16.43;77.03;97615.16;5008073;28;20510;-81
2023/08/04 02:02:07;;;;;;;6.72;2.42;;;;;;;16.47;77.25;97633.31;5008969;28;20029;-82
2023/08/04 02:04:32;;;;;;;3.10;2.30;;;;;;;16.23;77.50;97605.41;5004293;28;20124;-82
2023/08/04 02:06:57;;;;;;;5.80;2.40;;;;;;;16.33;77.92;97637.88;5002672;28;20056;-80
2023/08/04 02:09:25;;;;;;;2.90;2.00;;;;;;;15.95;77.67;97581.94;5005958;28;20399;-81
2023/08/04 02:11:51;;;;;;;6.60;2.67;;;;;;;15.28;78.32;97493.53;5006747;28;20031;-80
2023/08/04 02:14:16;;;;;;;2.70;1.88;;;;;;;16.19;78.04;97647.06;4992881;28;20030;-80
2023/08/04 02:16:41;;;;;;;5.38;2.45;;;;;;;16.09;78.79;97653.44;5023774;28;20068;-78
2023/08/04 02:19:09;;;;;;;3.78;2.20;;;;;;;16.15;79.21;97659.63;5031117;28;20048;-80
2023/08/04 02:21:34;;;;;;;3.55;1.90;;;;;;;16.19;79.03;97652.50;5025348;28;20029;-79
2023/08/04 02:24:00;;;;;;;4.20;2.17;;;;;;;16.04;79.58;97634.50;4994972;28;20172;-79
2023/08/04 02:26:26;;;;;;;3.72;2.45;;;;;;;16.06;80.38;97654.00;5004618;28;20028;-80
2023/08/04 02:28:52;;;;;;;6.18;2.42;;;;;;;16.03;80.51;97670.09;5033189;28;20128;-79
2023/08/04 02:31:19;;;;;;;7.78;2.78;;;;;;;16.13;80.03;97659.91;5004593;28;20061;-79
2023/08/04 02:33:45;;;;;;;4.35;2.47;;;;;;;16.15;80.15;97657.69;5020424;28;20033;-80
2023/08/04 02:36:11;;;;;;;4.30;2.67;;;;;;;16.11;80.66;97662.09;5020654;28;20021;-79
2023/08/04 02:38:36;;;;;;;2.65;2.25;;;;;;;15.89;80.28;97619.19;4987574;28;20061;-79
2023/08/04 02:41:05;;;;;;;7.45;3.08;;;;;;;16.14;80.51;97639.78;5036566;28;20017;-78
2023/08/04 02:43:31;;;;;;;3.92;2.50;;;;;;;16.18;80.65;97640.00;5001532;28;20495;-79
2023/08/04 02:45:56;;;;;;;3.42;2.40;;;;;;;15.97;80.99;97612.31;5022354;28;20047;-80
2023/08/04 02:48:22;;;;;;;4.95;2.75;;;;;;;16.07;80.75;97622.22;5024174;28;20064;-80
2023/08/04 02:50:57;;;;;;;4.97;2.50;;;;;;;16.23;80.86;97654.34;5006818;28;20051;-79
2023/08/04 02:53:22;;;;;;;4.75;2.40;;;;;;;16.17;80.94;97633.78;5023801;28;20034;-80
2023/08/04 02:55:48;;;;;;;5.05;2.55;;;;;;;16.04;80.75;97601.91;5003159;28;20112;-80
2023/08/04 02:58:13;;;;;;;7.43;2.90;;;;;;;15.75;80.49;97544.22;5001456;28;20738;-79
2023/08/04 03:00:39;;;;;;;5.18;2.30;;;;;;;16.26;80.49;97631.19;5017993;28;20022;-80
2023/08/04 03:03:04;;;;;;;4.03;2.67;;;;;;;15.96;80.51;97589.00;5020646;28;20037;-80
2023/08/04 03:05:34;;;;;;;4.18;2.78;;;;;;;16.32;80.55;97638.97;5008931;28;20109;-79
2023/08/04 03:07:59;;;;;;;4.57;2.40;;;;;;;16.26;80.04;97621.16;5021054;28;20024;-80
2023/08/04 03:10:25;;;;;;;5.68;2.60;;;;;;;16.11;80.49;97599.63;5022212;28;20029;-80
2023/08/04 03:12:50;;;;;;;3.78;2.17;;;;;;;16.23;80.33;97615.47;5026779;28;20048;-81
2023/08/04 03:15:16;;;;;;;2.63;2.30;;;;;;;16.20;80.36;97607.91;4996791;28;20040;-80
2023/08/04 03:17:41;;;;;;;3.65;2.30;;;;;;;16.26;80.19;97621.16;5025975;28;20038;-79
2023/08/04 03:20:07;;;;;;;6.53;2.47;;;;;;;16.36;80.08;97641.94;4994422;28;20099;-81
2023/08/04 03:22:32;;;;;;;4.82;2.63;;;;;;;16.31;80.82;97644.72;5004822;28;20119;-79
2023/08/04 03:24:58;;;;;;;5.50;2.40;;;;;;;16.24;80.58;97647.78;5003551;28;20040;-79
2023/08/04 03:27:23;;;;;;;5.05;2.15;;;;;;;15.62;81.49;97577.50;5002102;28;20052;-79
2023/08/04 03:29:49;;;;;;;4.13;2.28;;;;;;;15.73;81.39;97589.81;4989987;28;20112;-80
2023/08/04 03:32:14;;;;;;;4.70;2.50;;;;;;;16.10;81.47;97652.34;5001696;28;20121;-81
2023/08/04 03:34:39;;;;;;;6.05;2.60;;;;;;;16.22;81.27;97669.00;5019643;28;20022;-81
2023/08/04 03:37:05;;;;;;;6.20;2.60;;;;;;;16.10;81.72;97654.25;4997953;28;20113;-81
2023/08/04 03:39:30;;;;;;;4.47;2.50;;;;;;;16.12;81.56;97642.00;5001809;28;20501;-79
2023/08/04 03:41:56;;;;;;;5.25;2.30;;;;;;;16.11;81.67;97648.53;5023790;28;20029;-81
2023/08/04 03:44:21;;;;;;;4.20;2.60;;;;;;;16.11;81.19;97650.41;5037588;28;20032;-79
2023/08/04 03:46:46;;;;;;;2.65;2.42;;;;;;;15.84;81.61;97624.72;5023895;28;20076;-81
2023/08/04 03:49:12;;;;;;;4.65;2.45;;;;;;;16.20;81.66;97671.22;5044373;28;20052;-79
2023/08/04 03:51:37;;;;;;;4.90;2.60;;;;;;;15.91;81.78;97651.53;5026040;28;20407;-81
2023/08/04 03:54:03;;;;;;;3.97;2.47;;;;;;;16.10;81.81;97665.94;5033236;28;20084;-78
2023/08/04 03:56:28;;;;;;;3.75;2.60;;;;;;;16.11;81.98;97689.28;5021458;28;20048;-81
2023/08/04 03:58:53;;;;;;;4.53;2.40;;;;;;;16.18;81.86;97684.28;5006510;28;20037;-83
2023/08/04 04:01:19;;;;;;;5.75;2.55;;;;;;;15.97;81.93;97650.34;4990956;28;20048;-80
2023/08/04 04:03:44;;;;;;;4.75;2.47;;;;;;;16.23;81.72;97689.66;5046673;28;20075;-81
2023/08/04 04:06:10;;;;;;;4.97;2.30;;;;;;;16.22;81.61;97690.75;5049436;28;20039;-81
2023/08/04 04:08:35;;;;;;;6.82;2.60;;;;;;;16.28;81.60;97695.03;5027114;28;20025;-80
2023/08/04 04:11:00;;;;;;;5.45;2.58;;;;;;;16.23;81.59;97684.22;5031223;28;20037;-83
2023/08/04 04:13:26;;;;;;;4.05;2.45;;;;;;;16.24;81.63;97683.09;5018844;28;20108;-82
2023/08/04 04:15:51;;;;;;;4.13;2.45;;;;;;;16.31;81.66;97693.63;5018973;28;20056;-81
2023/08/04 04:18:17;;;;;;;5.57;2.40;;;;;;;16.26;81.67;97682.81;5022342;28;20029;-80
2023/08/04 04:20:42;;;;;;;5.15;2.88;;;;;;;16.26;81.60;97682.81;4986715;28;20041;-81
2023/08/04 04:23:07;;;;;;;5.38;2.42;;;;;;;16.41;81.61;97716.03;5034226;28;20025;-76
2023/08/04 04:25:33;;;;;;;6.47;2.67;;;;;;;16.34;81.48;97703.88;5028853;28;20033;-79
2023/08/04 04:27:58;;;;;;;5.20;3.20;;;;;;;16.20;82.05;97686.69;5026948;28;20037;-78
2023/08/04 04:30:23;;;;;;;6.85;3.20;;;;;;;16.26;82.36;97702.66;4988778;28;20501;-79
2023/08/04 04:32:49;;;;;;;8.30;3.20;;;;;;;16.28;82.98;97711.31;4998407;28;20047;-81
2023/08/04 04:35:14;;;;;;;7.03;3.78;;;;;;;16.16;83.12;97701.97;5026327;28;20061;-78
2023/08/04 04:37:39;;;;;;;12.55;3.50;;;;;;;16.21;83.47;97705.44;4995683;28;20022;-80
2023/08/04 04:40:06;;;;;;;6.78;3.88;;;;;;;16.18;83.48;97710.63;5007536;28;20606;-80
2023/08/04 04:42:33;;;;;;;6.65;3.28;;;;;;;16.13;83.58;97697.94;4999011;28;20026;-78
2023/08/04 04:44:58;;;;;;;5.60;3.17;;;;;;;16.18;83.79;97716.88;4985158;28;20033;-78
2023/08/04 04:47:24;;;;;;;7.05;3.50;;;;;;;16.34;83.49;97731.06;5014408;28;20092;-79
2023/08/04 04:49:49;;;;;;;5.93;3.60;;;;;;;16.30;83.91;97733.56;4998748;28;20107;-79
2023/08/04 04:52:32;;;;;;;8.02;3.40;;;;;;;16.38;83.52;97732.91;5037283;28;20036;-77
2023/08/04 04:54:59;;;;;;;6.63;3.70;;;;;;;16.31;83.79;97713.44;5041724;28;20041;-77
2023/08/04 04:57:25;;;;;;;7.53;3.60;;;;;;;16.30;83.67;97709.13;5034121;28;20108;-77
2023/08/04 04:59:50;;;;;;;6.35;3.72;;;;;;;16.44;83.43;97726.31;5033960;28;20510;-79
2023/08/04 05:02:16;;;;;;;6.40;3.70;;;;;;;16.36;83.89;97713.38;4996296;28;20029;-79
2023/08/04 05:04:41;;;;;;;6.75;3.70;;;;;;;16.41;84.32;97721.47;5024850;28;20123;-79
2023/08/04 05:07:06;;;;;;;6.22;3.85;;;;;;;16.54;83.76;97739.00;4999125;28;20449;-81
2023/08/04 05:09:32;;;;;;;10.13;4.15;;;;;;;16.55;83.87;97730.53;5028087;28;20102;-82
2023/08/04 05:11:57;;;;;;;6.38;3.70;;;;;;;16.47;84.14;97731.19;5014805;28;20100;-79
2023/08/04 05:14:22;;;;;;;8.73;4.18;;;;;;;16.50;83.99;97736.00;4995808;28;20059;-81
2023/08/04 05:16:48;;;;;;;7.25;3.92;;;;;;;16.52;84.06;97730.31;4988553;28;20718;-81
2023/08/04 05:19:14;;;;;;;6.68;3.78;;;;;;;16.50;83.86;97730.56;4994643;28;20028;-80
2023/08/04 05:21:39;;;;;;;7.55;4.50;;;;;;;16.18;84.01;97684.28;5031843;28;20025;-78
2023/08/04 05:24:04;;;;;;;5.63;4.10;;;;;;;16.41;84.02;97717.94;4989252;28;20068;-81
2023/08/04 05:26:30;;;;;;;5.40;4.60;;;;;;;16.51;83.81;97721.34;5045508;28;20018;-81
2023/08/04 05:28:55;;;;;;;5.57;4.47;;;;;;;16.66;84.06;97749.44;5009093;28;20040;-78
2023/08/04 05:31:20;;;;;;;7.75;4.72;;;;;;;16.56;84.38;97734.06;5014469;28;20039;-81
2023/08/04 05:33:46;;;;;;;6.35;4.50;;;;;;;16.40;84.47;97703.56;5024505;28;20464;-81
2023/08/04 05:36:12;;;;;;;6.93;4.95;;;;;;;16.73;84.51;97760.75;5048008;28;20075;-79
2023/08/04 05:38:41;;;;;;;10.10;5.25;;;;;;;16.66;84.70;97752.16;5027461;28;20060;-81
2023/08/04 05:41:06;;;;;;;6.20;5.38;;;;;;;16.33;84.46;97686.81;5021338;28;20036;-81
2023/08/04 05:43:32;;;;;;;8.95;5.40;;;;;;;16.75;84.40;97737.59;5027225;28;20484;-78
2023/08/04 05:46:04;;;;;;;7.00;5.10;;;;;;;16.98;84.42;97757.63;5001331;28;20018;-79
2023/08/04 05:48:31;;;;;;;6.78;4.95;;;;;;;17.10;84.05;97758.00;5014094;28;20079;-78
2023/08/04 05:50:56;;;;;;;8.48;5.30;;;;;;;17.13;83.33;97754.66;5020966;28;20399;-78
2023/08/04 05:53:22;;;;;;;6.68;5.20;;;;;;;16.58;83.62;97670.13;5009480;28;20033;-79
2023/08/04 05:55:47;;;;;;;5.93;5.10;;;;;;;17.24;83.74;97756.94;5022599;28;20666;-78
2023/08/04 05:58:13;;;;;;;6.25;5.40;;;;;;;17.23;83.71;97743.59;5042355;28;20116;-77
2023/08/04 06:00:38;;;;;;;7.97;5.00;;;;;;;17.22;84.03;97739.28;5029813;28;20018;-79
2023/08/04 06:03:06;;;;;;;9.13;5.68;;;;;;;17.35;83.77;97754.03;4995379;28;20075;-81
2023/08/04 06:05:32;;;;;;;7.70;5.05;;;;;;;17.42;84.02;97760.72;5007146;28;20021;-79
2023/08/04 06:07:57;;;;;;;9.02;5.32;;;;;;;17.29;84.08;97750.59;5025275;28;20095;-80
2023/08/04 06:10:22;;;;;;;7.32;5.03;;;;;;;17.23;83.95;97749.06;5021378;28;20432;-80
2023/08/04 06:12:48;;;;;;;11.32;5.50;;;;;;;17.29;83.58;97742.44;5024727;28;20434;-80
2023/08/04 06:15:14;;;;;;;7.68;5.53;;;;;;;17.28;83.45;97733.44;5004858;28;20021;-81
2023/08/04 06:17:40;;;;;;;9.02;5.05;;;;;;;17.21;83.56;97735.75;5008773;28;20519;-80
2023/08/04 06:20:07;;;;;;;8.35;4.90;;;;;;;17.31;82.77;97751.09;4985968;28;20059;-80
2023/08/04 06:22:33;;;;;;;7.32;4.90;;;;;;;17.05;82.92;97730.84;4989230;28;20080;-80
2023/08/04 06:24:59;;;;;;;7.78;5.07;;;;;;;16.80;83.09;97668.72;5011694;28;20048;-79
2023/08/04 06:27:24;;;;;;;7.63;4.90;;;;;;;17.34;82.98;97738.81;5012655;28;20032;-77
2023/08/04 06:29:50;;;;;;;4.97;4.40;;;;;;;17.26;83.31;97743.03;5023470;28;20025;-78
2023/08/04 06:32:15;;;;;;;7.28;5.20;;;;;;;17.46;82.64;97764.44;5032669;28;20044;-79
2023/08/04 06:34:41;;;;;;;7.90;4.80;;;;;;;17.51;82.55;97767.09;5020084;28;20052;-79
2023/08/04 06:37:06;;;;;;;7.88;4.78;;;;;;;17.52;82.15;97773.38;5009771;28;20037;-79
2023/08/04 06:39:32;;;;;;;7.47;4.85;;;;;;;17.32;81.89;97755.44;5000045;28;20110;-77
2023/08/04 06:41:57;;;;;;;8.38;4.60;;;;;;;17.26;82.11;97732.94;5036475;28;20041;-78
2023/08/04 06:44:22;;;;;;;7.43;4.93;;;;;;;17.53;81.82;97764.88;5020443;28;20113;-80
2023/08/04 06:46:48;;;;;;;7.22;4.50;;;;;;;17.51;82.19;97772.56;5031350;28;20029;-78
2023/08/04 06:49:13;;;;;;;6.70;5.05;;;;;;;17.69;82.31;97774.41;5038184;28;20021;-78
2023/08/04 06:51:39;;;;;;;7.05;5.28;;;;;;;17.29;82.22;97704.31;5001162;28;20089;-81
2023/08/04 06:54:04;;;;;;;6.72;4.50;;;;;;;17.87;82.07;97784.44;5016016;28;20051;-81
2023/08/04 06:56:30;;;;;;;9.20;4.93;;;;;;;17.90;81.55;97778.34;5018889;28;20033;-79
2023/08/04 06:58:56;;;;;;;7.88;4.82;;;;;;;17.90;81.79;97780.28;5006469;28;20415;-82
2023/08/04 07:01:21;;;;;;;6.57;4.70;;;;;;;17.78;81.49;97750.78;4991857;28;20038;-79
2023/08/04 07:03:49;;;;;;;6.32;4.63;;;;;;;17.95;81.19;97789.16;5035532;28;20082;-78
2023/08/04 07:06:15;;;;;;;5.45;4.15;;;;;;;17.86;80.62;97774.63;5028049;28;20476;-78
2023/08/04 07:08:40;;;;;;;6.90;4.40;;;;;;;17.99;80.42;97788.56;5003728;28;20025;-79
2023/08/04 07:11:17;;;;;;;7.43;5.65;;;;;;;18.06;79.93;97794.44;5013865;28;20543;-81
2023/08/04 07:13:46;;;;;;;6.70;4.63;;;;;;;18.12;79.77;97788.56;5003941;28;20041;-79
2023/08/04 07:16:11;;;;;;;6.90;4.90;;;;;;;18.16;79.77;97794.22;5000443;28;20458;-79
2023/08/04 07:18:37;;;;;;;7.63;4.72;;;;;;;18.15;80.11;97787.16;5026432;28;20549;-81
2023/08/04 07:21:07;;;;;;;8.57;4.85;;;;;;;18.18;79.76;97797.47;5010271;28;20056;-81
2023/08/04 07:23:33;;;;;;;6.50;5.13;;;;;;;18.05;79.53;97781.91;5008772;28;20182;-81
2023/08/04 07:25:58;;;;;;;5.45;4.85;;;;;;;17.99;79.69;97772.22;5026929;28;20514;-81
2023/08/04 07:28:23;;;;;;;8.00;4.97;;;;;;;17.94;79.93;97786.75;5009305;28;20124;-80
2023/08/04 07:30:49;;;;;;;6.65;5.40;;;;;;;18.00;79.68;97795.63;5010553;28;20025;-81
2023/08/04 07:33:14;;;;;;;5.80;5.15;;;;;;;17.86;79.88;97777.34;5000080;28;20083;-81
2023/08/04 07:35:39;;;;;;;8.52;5.25;;;;;;;17.90;79.80;97791.97;5003644;28;20025;-81
2023/08/04 07:38:05;;;;;;;7.05;5.18;;;;;;;18.01;79.26;97798.06;5013574;28;20065;-78
2023/08/04 07:40:30;;;;;;;7.25;5.18;;;;;;;18.08;78.66;97786.75;5046132;28;20082;-78
2023/08/04 07:42:56;;;;;;;7.38;5.15;;;;;;;18.20;78.71;97781.63;5037937;28;20044;-81
2023/08/04 07:45:21;;;;;;;7.18;5.68;;;;;;;18.27;78.40;97779.28;5023348;28;20088;-80
2023/08/04 07:47:46;;;;;;;6.25;5.25;;;;;;;18.46;77.97;97799.09;5015558;28;20041;-81
2023/08/04 07:50:12;;;;;;;6.68;5.10;;;;;;;18.33;77.66;97783.50;4999951;28;20487;-80
2023/08/04 07:52:37;;;;;;;5.70;5.10;;;;;;;18.29;77.90;97782.50;5028857;28;20100;-81
2023/08/04 07:55:03;;;;;;;5.97;4.85;;;;;;;18.36;78.28;97785.63;5027077;28;20041;-79
2023/08/04 07:57:28;;;;;;;5.63;4.70;;;;;;;18.44;77.32;97784.91;5016903;28;20192;-80
2023/08/04 07:59:54;;;;;;;6.78;4.75;;;;;;;18.28;76.76;97764.53;5016658;28;20039;-80
2023/08/04 08:02:19;;;;;;;6.07;4.72;;;;;;;18.60;76.88;97805.31;5011421;28;20116;-81
2023/08/04 08:04:45;;;;;;;7.28;4.57;;;;;;;17.86;77.02;97675.75;5011914;28;20029;-80
2023/08/04 08:07:10;;;;;;;5.90;4.40;;;;;;;18.74;77.17;97775.31;5010932;28;20044;-79
2023/08/04 08:09:36;;;;;;;6.05;4.50;;;;;;;18.62;77.26;97756.75;5043853;28;20014;-79
2023/08/04 08:12:01;;;;;;;6.68;4.20;;;;;;;18.90;77.52;97793.75;4998551;28;20504;-79
2023/08/04 08:14:27;;;;;;;7.90;4.35;;;;;;;19.10;76.56;97808.84;5002476;28;20590;-78
2023/08/04 08:16:52;;;;;;;5.43;4.43;;;;;;;19.22;76.34;97820.84;5023517;28;20037;-78
2023/08/04 08:19:18;;;;;;;5.50;4.00;;;;;;;19.31;76.14;97816.25;5027719;28;20021;-79
2023/08/04 08:21:43;;;;;;;5.90;3.92;;;;;;;19.36;75.28;97806.34;5002548;28;20037;-79
2023/08/04 08:24:09;;;;;;;6.72;3.75;;;;;;;19.45;74.67;97804.47;5010482;28;20534;-79
2023/08/04 08:26:34;;;;;;;4.10;3.42;;;;;;;19.31;74.50;97777.22;5025638;28;20028;-78
2023/08/04 08:29:02;;;;;;;5.55;3.75;;;;;;;19.36;74.33;97812.63;5040246;28;20363;-79
2023/08/04 08:31:27;;;;;;;5.15;3.83;;;;;;;19.27;74.44;97781.69;5016986;28;20037;-78
2023/08/04 08:33:52;;;;;;;4.47;3.55;;;;;;;19.68;74.07;97806.06;5002565;28;20108;-81
2023/08/04 08:36:19;;;;;;;3.95;2.80;;;;;;;19.63;73.14;97796.09;4997025;28;20033;-81
2023/08/04 08:38:44;;;;;;;4.60;3.25;;;;;;;19.76;72.95;97810.81;4982780;28;20028;-78
2023/08/04 08:41:11;;;;;;;4.13;3.13;;;;;;;20.02;73.37;97803.53;4995232;28;20040;-78
2023/08/04 08:43:37;;;;;;;3.72;3.05;;;;;;;19.77;73.38;97791.34;5040016;28;20061;-78
2023/08/04 08:46:03;;;;;;;3.22;2.90;;;;;;;19.91;72.14;97799.44;5017351;28;20041;-78
2023/08/04 08:48:29;;;;;;;5.00;2.83;;;;;;;19.96;71.36;97799.31;5012521;28;20028;-79
2023/08/04 08:51:12;;;;;;;4.57;3.00;;;;;;;20.21;71.24;97823.22;5016313;28;20091;-79
2023/08/04 08:53:38;;;;;;;4.15;2.60;;;;;;;20.41;71.16;97811.75;5004398;28;20119;-79
2023/08/04 08:56:04;;;;;;;3.42;2.72;;;;;;;20.44;70.16;97819.31;5017579;28;20119;-78
2023/08/04 08:58:31;;;;;;;3.47;2.40;;;;;;;20.52;68.21;97829.50;5021128;28;20453;-78
2023/08/04 09:00:56;;;;;;;3.53;2.17;;;;;;;20.34;68.69;97805.94;5014863;28;20120;-78
2023/08/04 09:03:22;;;;;;;2.72;2.22;;;;;;;20.32;68.51;97802.72;5012495;28;20064;-79
2023/08/04 09:05:47;;;;;;;2.65;2.08;;;;;;;20.49;68.13;97821.91;5001652;28;20028;-78
2023/08/04 09:08:12;;;;;;;3.55;2.08;;;;;;;20.54;66.72;97816.28;4998334;28;20031;-79
2023/08/04 09:10:38;;;;;;;3.53;2.33;;;;;;;20.36;67.38;97797.41;5001715;28;20021;-77
2023/08/04 09:13:07;;;;;;;4.05;2.40;;;;;;;20.37;67.27;97809.97;5031446;28;20076;-79
2023/08/04 09:15:54;;;;;;;3.03;2.55;;;;;;;20.25;67.17;97802.38;5006239;28;20496;-79
2023/08/04 09:18:26;;;;;;;;;;;;;;;20.12;67.96;97805.97;5021684;28;20056;-78
2023/08/04 09:21:09;;;;;;;2.60;2.33;;;;;;;20.50;67.46;97787.16;5013074;28;19912;-78
2023/08/04 09:23:52;;;;;;;2.83;1.70;;;;;;;20.67;65.85;97782.53;4989465;28;20619;-78
2023/08/04 09:26:18;;;;;;;2.70;2.05;;;;;;;20.86;65.16;97779.50;5001967;28;20038;-79
2023/08/04 09:28:43;;;;;;;2.88;1.98;;;;;;;21.05;65.02;97792.91;5018253;28;20022;-79
2023/08/04 09:31:11;;;;;;;2.75;1.77;;;;;;;21.30;65.46;97805.78;5007700;28;20047;-78
2023/08/04 09:33:38;;;;;;;2.80;2.05;;;;;;;21.33;64.74;97791.47;5011805;28;20112;-78
2023/08/04 09:36:09;;;;;;;2.53;1.80;;;;;;;21.03;63.69;97801.41;5014557;28;20040;-78
2023/08/04 09:38:36;;;;;;;2.85;1.95;;;;;;;21.00;64.01;97814.94;5026391;28;20059;-78
2023/08/04 09:41:02;;;;;;;3.08;2.00;;;;;;;20.97;62.55;97812.84;5039490;28;20021;-78
2023/08/04 09:43:28;;;;;;;3.90;2.03;;;;;;;20.60;63.62;97787.69;5026416;28;20480;-78
2023/08/04 09:46:04;;;;;;;2.00;1.80;;;;;;;21.08;62.96;97809.50;5019989;28;20087;-78
2023/08/04 09:48:30;;;;;;;4.70;1.98;;;;;;;21.16;63.54;97810.63;5020111;28;20053;-78
2023/08/04 09:51:10;;;;;;;3.22;1.92;;;;;;;21.34;62.67;97801.28;5036067;28;20388;-78
2023/08/04 09:53:43;;;;;;;3.30;1.83;;;;;;;21.48;62.29;97796.44;5016437;28;20044;-78
2023/08/04 09:56:10;;;;;;;3.42;1.90;;;;;;;21.33;62.44;97800.47;5012455;28;20052;-78
2023/08/04 09:58:37;;;;;;;3.40;2.10;;;;;;;21.39;62.86;97803.84;5011392;28;20456;-78
2023/08/04 10:01:02;;;;;;;3.10;2.05;;;;;;;21.33;62.34;97816.13;5000876;28;20033;-78
2023/08/04 10:03:28;;;;;;;2.97;2.13;;;;;;;20.95;63.26;97815.09;5018617;28;20024;-78
2023/08/04 10:05:57;;;;;;;3.10;2.30;;;;;;;21.15;63.52;97819.97;4985744;28;20040;-77
2023/08/04 10:08:23;;;;;;;4.95;2.33;;;;;;;20.80;63.69;97779.97;5035137;28;20373;-78
2023/08/04 10:10:50;;;;;;;3.50;2.20;;;;;;;20.75;63.51;97799.31;5011904;28;20037;-78
2023/08/04 10:13:16;;;;;;;4.53;2.10;;;;;;;20.46;63.82;97800.69;5028905;28;20032;-78
2023/08/04 10:15:42;;;;;;;3.42;2.03;;;;;;;20.78;64.25;97804.13;5017921;28;20116;-78
2023/08/04 10:18:08;;;;;;;2.05;1.85;;;;;;;20.53;64.79;97761.91;5002556;28;20025;-77
2023/08/04 10:20:34;;;;;;;3.42;2.15;;;;;;;20.80;65.61;97807.34;5006987;28;20041;-79
2023/08/04 10:22:59;;;;;;;3.10;2.20;;;;;;;20.56;65.44;97788.63;5002236;28;20021;-79
2023/08/04 10:25:25;;;;;;;4.00;2.30;;;;;;;20.41;65.12;97737.91;5021205;28;20120;-78
2023/08/04 10:27:51;;;;;;;2.50;2.10;;;;;;;20.75;64.55;97783.66;5015583;28;20025;-78
2023/08/04 10:30:17;;;;;;;2.85;1.98;;;;;;;20.80;64.45;97785.44;5015474;28;20049;-78
2023/08/04 10:32:42;;;;;;;3.80;1.98;;;;;;;20.90;64.33;97774.19;5020090;28;20071;-78
2023/08/04 10:35:18;;;;;;;2.92;2.10;;;;;;;20.94;63.69;97803.34;5031588;28;20472;-78
2023/08/04 10:37:53;;;;;;;5.47;2.13;;;;;;;20.94;64.08;97770.47;5015723;28;20041;-78
2023/08/04 10:40:32;;;;;;;3.70;2.30;;;;;;;21.22;64.08;97795.63;5010430;28;20060;-78
2023/08/04 10:43:05;;;;;;;2.30;1.55;;;;;;;21.16;63.37;97794.19;5020597;28;20072;-78
2023/08/04 10:46:02;;;;;;;3.25;1.80;;;;;;;21.25;62.25;97781.31;5003669;28;20067;-78
2023/08/04 10:48:28;;;;;;;2.33;1.90;;;;;;;21.41;62.44;97785.16;5012049;28;20057;-78
2023/08/04 10:50:54;;;;;;;2.22;1.73;;;;;;;21.47;61.33;97789.31;5008635;28;20514;-78
2023/08/04 10:53:19;;;;;;;3.20;1.88;;;;;;;21.43;60.63;97757.41;4998212;28;20055;-78
2023/08/04 10:55:56;;;;;;;6.97;1.90;;;;;;;21.50;59.93;97772.25;5008673;28;20025;-79
2023/08/04 10:58:25;;;;;;;3.03;1.60;;;;;;;21.73;60.52;97787.34;5022581;28;20033;-79
2023/08/04 11:00:55;;;;;;;1.90;1.60;;;;;;;21.68;59.42;97790.25;5012007;28;20079;-79
2023/08/04 11:03:22;;;;;;;4.32;1.85;;;;;;;21.70;59.67;97793.50;5011218;28;20272;-78
2023/08/04 11:05:49;;;;;;;2.00;1.58;;;;;;;21.45;59.89;97790.81;5000417;28;20175;-78
2023/08/04 11:08:15;;;;;;;1.90;1.65;;;;;;;21.22;61.14;97777.28;5006189;28;20044;-78
2023/08/04 11:10:47;;;;;;;4.03;1.83;;;;;;;21.28;60.65;97802.56;5030468;28;20026;-78
2023/08/04 11:13:13;;;;;;;1.83;1.70;;;;;;;21.06;61.31;97806.28;5000808;28;20042;-78
2023/08/04 11:15:44;;;;;;;4.15;1.70;;;;;;;21.01;61.40;97802.84;4997940;28;20037;-78
2023/08/04 11:18:15;;;;;;;2.83;1.98;;;;;;;21.15;62.68;97825.44;5012577;28;20040;-78
2023/08/04 11:20:41;;;;;;;3.30;2.13;;;;;;;20.94;63.71;97802.53;5017202;28;20052;-78
2023/08/04 11:23:10;;;;;;;3.63;2.00;;;;;;;21.03;64.96;97828.78;5014543;28;20033;-78
2023/08/04 11:25:39;;;;;;;3.35;2.28;;;;;;;20.99;65.21;97827.00;5028593;28;20120;-78
2023/08/04 11:28:05;;;;;;;2.20;2.00;;;;;;;21.06;66.10;97832.84;5006875;28;20033;-78
2023/08/04 11:30:35;;;;;;;2.65;2.38;;;;;;;20.96;66.67;97822.16;5010997;28;20087;-78
2023/08/04 11:33:06;;;;;;;2.95;2.33;;;;;;;20.96;67.30;97822.16;5016019;28;20552;-78
2023/08/04 11:35:32;;;;;;;6.93;2.45;;;;;;;20.96;67.12;97813.94;5004553;28;20041;-78